sensor_id;sensor_type;location;lat;lon;timestamp;P1;durP1;ratioP1;P2;durP2;ratioP2
14235;SDS011;7202;50.718;7.072;2023-06-24T00:00:05;9.20;;;6.95;;
14235;SDS011;7202;50.718;7.072;2023-06-24T00:02:39;8.52;;;6.28;;
14235;SDS011;7202;50.718;7.072;2023-06-24T00:05:10;7.88;;;6.00;;
14235;SDS011;7202;50.718;7.072;2023-06-24T00:07:39;6.50;;;5.90;;
14235;SDS011;7202;50.718;7.072;2023-06-24T00:10:13;7.32;;;5.90;;
14235;SDS011;7202;50.718;7.072;2023-06-24T00:12:44;7.18;;;5.22;;
14235;SDS011;7202;50.718;7.072;2023-06-24T00:15:13;6.57;;;5.90;;
14235;SDS011;7202;50.718;7.072;2023-06-24T00:17:43;6.78;;;6.18;;
14235;SDS011;7202;50.718;7.072;2023-06-24T00:20:12;5.90;;;5.30;;
14235;SDS011;7202;50.718;7.072;2023-06-24T00:22:41;10.88;;;5.70;;
14235;SDS011;7202;50.718;7.072;2023-06-24T00:25:11;8.80;;;6.15;;
14235;SDS011;7202;50.718;7.072;2023-06-24T00:27:40;8.32;;;6.00;;
14235;SDS011;7202;50.718;7.072;2023-06-24T00:30:10;7.65;;;6.38;;
14235;SDS011;7202;50.718;7.072;2023-06-24T00:32:39;8.27;;;6.38;;
14235;SDS011;7202;50.718;7.072;2023-06-24T00:35:09;13.07;;;6.00;;
14235;SDS011;7202;50.718;7.072;2023-06-24T00:37:40;6.68;;;5.70;;
14235;SDS011;7202;50.718;7.072;2023-06-24T00:40:12;8.25;;;5.47;;
14235;SDS011;7202;50.718;7.072;2023-06-24T00:42:42;7.07;;;6.05;;
14235;SDS011;7202;50.718;7.072;2023-06-24T00:45:12;9.73;;;5.82;;
14235;SDS011;7202;50.718;7.072;2023-06-24T00:47:43;8.85;;;5.35;;
14235;SDS011;7202;50.718;7.072;2023-06-24T00:50:13;8.27;;;5.47;;
14235;SDS011;7202;50.718;7.072;2023-06-24T00:52:43;6.30;;;5.50;;
14235;SDS011;7202;50.718;7.072;2023-06-24T00:55:12;6.65;;;5.95;;
14235;SDS011;7202;50.718;7.072;2023-06-24T00:57:44;7.45;;;5.97;;
14235;SDS011;7202;50.718;7.072;2023-06-24T01:00:14;10.80;;;5.50;;
14235;SDS011;7202;50.718;7.072;2023-06-24T01:02:46;10.60;;;6.03;;
14235;SDS011;7202;50.718;7.072;2023-06-24T01:05:16;8.25;;;5.68;;
14235;SDS011;7202;50.718;7.072;2023-06-24T01:07:50;6.28;;;5.32;;
14235;SDS011;7202;50.718;7.072;2023-06-24T01:10:23;7.30;;;5.55;;
14235;SDS011;7202;50.718;7.072;2023-06-24T01:12:53;7.97;;;6.10;;
14235;SDS011;7202;50.718;7.072;2023-06-24T01:15:21;6.85;;;5.50;;
14235;SDS011;7202;50.718;7.072;2023-06-24T01:17:52;8.68;;;5.70;;
14235;SDS011;7202;50.718;7.072;2023-06-24T01:20:29;7.50;;;5.57;;
14235;SDS011;7202;50.718;7.072;2023-06-24T01:26:20;6.85;;;5.20;;
14235;SDS011;7202;50.718;7.072;2023-06-24T01:29:02;6.05;;;5.45;;
14235;SDS011;7202;50.718;7.072;2023-06-24T01:31:45;7.32;;;5.65;;
14235;SDS011;7202;50.718;7.072;2023-06-24T01:34:20;11.10;;;6.10;;
14235;SDS011;7202;50.718;7.072;2023-06-24T01:36:55;10.40;;;5.70;;
14235;SDS011;7202;50.718;7.072;2023-06-24T01:39:30;6.35;;;5.75;;
14235;SDS011;7202;50.718;7.072;2023-06-24T01:42:03;6.95;;;5.18;;
14235;SDS011;7202;50.718;7.072;2023-06-24T01:44:36;6.53;;;5.93;;
14235;SDS011;7202;50.718;7.072;2023-06-24T01:47:08;6.70;;;6.00;;
14235;SDS011;7202;50.718;7.072;2023-06-24T01:49:40;6.10;;;5.28;;
14235;SDS011;7202;50.718;7.072;2023-06-24T01:52:11;8.70;;;5.50;;
14235;SDS011;7202;50.718;7.072;2023-06-24T01:54:41;7.75;;;5.55;;
14235;SDS011;7202;50.718;7.072;2023-06-24T01:57:10;7.72;;;5.95;;
14235;SDS011;7202;50.718;7.072;2023-06-24T01:59:42;7.35;;;6.00;;
14235;SDS011;7202;50.718;7.072;2023-06-24T02:02:15;7.28;;;5.15;;
14235;SDS011;7202;50.718;7.072;2023-06-24T02:04:47;8.48;;;5.50;;
14235;SDS011;7202;50.718;7.072;2023-06-24T02:07:17;6.40;;;5.47;;
14235;SDS011;7202;50.718;7.072;2023-06-24T02:09:48;5.93;;;5.35;;
14235;SDS011;7202;50.718;7.072;2023-06-24T02:12:18;8.40;;;5.68;;
14235;SDS011;7202;50.718;7.072;2023-06-24T02:14:49;8.10;;;5.75;;
14235;SDS011;7202;50.718;7.072;2023-06-24T02:17:20;7.20;;;5.88;;
14235;SDS011;7202;50.718;7.072;2023-06-24T02:19:52;5.90;;;5.30;;
14235;SDS011;7202;50.718;7.072;2023-06-24T02:22:26;9.60;;;6.20;;
14235;SDS011;7202;50.718;7.072;2023-06-24T02:24:57;7.93;;;6.25;;
14235;SDS011;7202;50.718;7.072;2023-06-24T02:27:27;6.82;;;6.13;;
14235;SDS011;7202;50.718;7.072;2023-06-24T02:29:57;8.68;;;6.28;;
14235;SDS011;7202;50.718;7.072;2023-06-24T02:32:28;7.80;;;5.70;;
14235;SDS011;7202;50.718;7.072;2023-06-24T02:34:57;6.55;;;5.88;;
14235;SDS011;7202;50.718;7.072;2023-06-24T02:37:28;7.32;;;5.78;;
14235;SDS011;7202;50.718;7.072;2023-06-24T02:39:57;7.80;;;5.72;;
14235;SDS011;7202;50.718;7.072;2023-06-24T02:42:27;6.90;;;6.20;;
14235;SDS011;7202;50.718;7.072;2023-06-24T02:44:55;6.60;;;5.82;;
14235;SDS011;7202;50.718;7.072;2023-06-24T02:47:25;8.10;;;6.38;;
14235;SDS011;7202;50.718;7.072;2023-06-24T02:49:56;8.30;;;6.50;;
14235;SDS011;7202;50.718;7.072;2023-06-24T02:52:26;8.32;;;6.47;;
14235;SDS011;7202;50.718;7.072;2023-06-24T02:54:57;6.72;;;6.13;;
14235;SDS011;7202;50.718;7.072;2023-06-24T02:57:44;7.47;;;6.72;;
14235;SDS011;7202;50.718;7.072;2023-06-24T03:00:36;9.32;;;6.60;;
14235;SDS011;7202;50.718;7.072;2023-06-24T03:03:07;7.13;;;6.40;;
14235;SDS011;7202;50.718;7.072;2023-06-24T03:05:50;6.75;;;5.85;;
14235;SDS011;7202;50.718;7.072;2023-06-24T03:08:21;11.93;;;6.40;;
14235;SDS011;7202;50.718;7.072;2023-06-24T03:10:51;7.00;;;6.35;;
14235;SDS011;7202;50.718;7.072;2023-06-24T03:13:25;7.35;;;6.65;;
14235;SDS011;7202;50.718;7.072;2023-06-24T03:16:02;6.95;;;6.22;;
14235;SDS011;7202;50.718;7.072;2023-06-24T03:18:40;6.75;;;6.15;;
14235;SDS011;7202;50.718;7.072;2023-06-24T03:21:09;10.23;;;6.30;;
14235;SDS011;7202;50.718;7.072;2023-06-24T03:23:41;8.07;;;6.43;;
14235;SDS011;7202;50.718;7.072;2023-06-24T03:26:12;8.90;;;6.63;;
14235;SDS011;7202;50.718;7.072;2023-06-24T03:28:42;8.80;;;6.47;;
14235;SDS011;7202;50.718;7.072;2023-06-24T03:31:15;9.27;;;6.95;;
14235;SDS011;7202;50.718;7.072;2023-06-24T03:33:45;10.32;;;7.00;;
14235;SDS011;7202;50.718;7.072;2023-06-24T03:36:16;8.75;;;6.85;;
14235;SDS011;7202;50.718;7.072;2023-06-24T03:38:44;7.32;;;6.55;;
14235;SDS011;7202;50.718;7.072;2023-06-24T03:41:13;8.90;;;6.88;;
14235;SDS011;7202;50.718;7.072;2023-06-24T03:43:42;17.00;;;7.38;;
14235;SDS011;7202;50.718;7.072;2023-06-24T03:46:12;10.48;;;6.88;;
14235;SDS011;7202;50.718;7.072;2023-06-24T03:48:40;7.55;;;6.55;;
14235;SDS011;7202;50.718;7.072;2023-06-24T03:51:10;8.38;;;7.28;;
14235;SDS011;7202;50.718;7.072;2023-06-24T03:53:39;8.05;;;6.25;;
14235;SDS011;7202;50.718;7.072;2023-06-24T03:56:08;8.10;;;6.90;;
14235;SDS011;7202;50.718;7.072;2023-06-24T03:58:37;7.80;;;6.53;;
14235;SDS011;7202;50.718;7.072;2023-06-24T04:01:05;9.68;;;6.55;;
14235;SDS011;7202;50.718;7.072;2023-06-24T04:03:36;8.35;;;6.75;;
14235;SDS011;7202;50.718;7.072;2023-06-24T04:06:05;8.65;;;7.13;;
14235;SDS011;7202;50.718;7.072;2023-06-24T04:08:35;7.57;;;6.07;;
14235;SDS011;7202;50.718;7.072;2023-06-24T04:11:06;7.05;;;6.07;;
14235;SDS011;7202;50.718;7.072;2023-06-24T04:13:35;7.60;;;6.88;;
14235;SDS011;7202;50.718;7.072;2023-06-24T04:16:04;9.30;;;7.88;;
14235;SDS011;7202;50.718;7.072;2023-06-24T04:18:33;7.55;;;6.70;;
14235;SDS011;7202;50.718;7.072;2023-06-24T04:21:04;10.18;;;7.05;;
14235;SDS011;7202;50.718;7.072;2023-06-24T04:23:35;9.30;;;7.45;;
14235;SDS011;7202;50.718;7.072;2023-06-24T04:26:03;8.02;;;6.82;;
14235;SDS011;7202;50.718;7.072;2023-06-24T04:28:32;10.77;;;7.30;;
14235;SDS011;7202;50.718;7.072;2023-06-24T04:31:01;9.05;;;7.07;;
14235;SDS011;7202;50.718;7.072;2023-06-24T04:33:30;7.95;;;7.22;;
14235;SDS011;7202;50.718;7.072;2023-06-24T04:35:59;7.63;;;6.82;;
14235;SDS011;7202;50.718;7.072;2023-06-24T04:38:28;10.13;;;8.00;;
14235;SDS011;7202;50.718;7.072;2023-06-24T04:41:00;7.90;;;7.18;;
14235;SDS011;7202;50.718;7.072;2023-06-24T04:43:29;8.38;;;7.40;;
14235;SDS011;7202;50.718;7.072;2023-06-24T04:45:59;10.43;;;7.32;;
14235;SDS011;7202;50.718;7.072;2023-06-24T04:48:28;7.72;;;6.85;;
14235;SDS011;7202;50.718;7.072;2023-06-24T04:50:56;6.95;;;6.35;;
14235;SDS011;7202;50.718;7.072;2023-06-24T04:53:25;7.82;;;6.32;;
14235;SDS011;7202;50.718;7.072;2023-06-24T04:55:54;9.70;;;6.82;;
14235;SDS011;7202;50.718;7.072;2023-06-24T04:58:24;7.97;;;6.57;;
14235;SDS011;7202;50.718;7.072;2023-06-24T05:00:53;8.57;;;6.95;;
14235;SDS011;7202;50.718;7.072;2023-06-24T05:03:22;6.57;;;5.90;;
14235;SDS011;7202;50.718;7.072;2023-06-24T05:05:50;6.93;;;6.28;;
14235;SDS011;7202;50.718;7.072;2023-06-24T05:08:19;8.20;;;6.18;;
14235;SDS011;7202;50.718;7.072;2023-06-24T05:10:48;7.90;;;6.68;;
14235;SDS011;7202;50.718;7.072;2023-06-24T05:13:16;6.72;;;6.10;;
14235;SDS011;7202;50.718;7.072;2023-06-24T05:15:46;7.00;;;6.30;;
14235;SDS011;7202;50.718;7.072;2023-06-24T05:18:15;7.65;;;5.93;;
14235;SDS011;7202;50.718;7.072;2023-06-24T05:20:43;6.88;;;6.13;;
14235;SDS011;7202;50.718;7.072;2023-06-24T05:23:12;6.68;;;5.97;;
14235;SDS011;7202;50.718;7.072;2023-06-24T05:25:40;7.50;;;6.75;;
14235;SDS011;7202;50.718;7.072;2023-06-24T05:28:09;6.25;;;5.65;;
14235;SDS011;7202;50.718;7.072;2023-06-24T05:30:40;7.93;;;6.00;;
14235;SDS011;7202;50.718;7.072;2023-06-24T05:33:10;7.55;;;6.15;;
14235;SDS011;7202;50.718;7.072;2023-06-24T05:35:40;8.65;;;6.30;;
14235;SDS011;7202;50.718;7.072;2023-06-24T05:38:10;6.78;;;6.07;;
14235;SDS011;7202;50.718;7.072;2023-06-24T05:40:39;9.27;;;6.50;;
14235;SDS011;7202;50.718;7.072;2023-06-24T05:43:07;6.03;;;5.43;;
14235;SDS011;7202;50.718;7.072;2023-06-24T05:45:36;6.47;;;5.88;;
14235;SDS011;7202;50.718;7.072;2023-06-24T05:48:05;6.72;;;6.13;;
14235;SDS011;7202;50.718;7.072;2023-06-24T05:50:35;6.30;;;5.70;;
14235;SDS011;7202;50.718;7.072;2023-06-24T05:53:04;6.22;;;5.63;;
14235;SDS011;7202;50.718;7.072;2023-06-24T05:55:32;6.70;;;5.35;;
14235;SDS011;7202;50.718;7.072;2023-06-24T05:58:01;6.75;;;6.10;;
14235;SDS011;7202;50.718;7.072;2023-06-24T06:00:30;7.05;;;6.28;;
14235;SDS011;7202;50.718;7.072;2023-06-24T06:02:58;7.82;;;5.63;;
14235;SDS011;7202;50.718;7.072;2023-06-24T06:05:27;6.40;;;5.40;;
14235;SDS011;7202;50.718;7.072;2023-06-24T06:07:57;5.82;;;5.25;;
14235;SDS011;7202;50.718;7.072;2023-06-24T06:10:26;6.20;;;5.60;;
14235;SDS011;7202;50.718;7.072;2023-06-24T06:12:55;5.60;;;5.10;;
14235;SDS011;7202;50.718;7.072;2023-06-24T06:15:23;6.40;;;5.80;;
14235;SDS011;7202;50.718;7.072;2023-06-24T06:17:52;6.18;;;5.30;;
14235;SDS011;7202;50.718;7.072;2023-06-24T06:20:21;5.82;;;5.05;;
14235;SDS011;7202;50.718;7.072;2023-06-24T06:22:49;6.50;;;5.22;;
14235;SDS011;7202;50.718;7.072;2023-06-24T06:25:19;9.10;;;5.63;;
14235;SDS011;7202;50.718;7.072;2023-06-24T06:27:48;6.15;;;4.63;;
14235;SDS011;7202;50.718;7.072;2023-06-24T06:30:16;9.02;;;5.80;;
14235;SDS011;7202;50.718;7.072;2023-06-24T06:32:47;6.68;;;6.03;;
14235;SDS011;7202;50.718;7.072;2023-06-24T06:35:15;6.68;;;5.43;;
14235;SDS011;7202;50.718;7.072;2023-06-24T06:37:44;5.80;;;5.25;;
14235;SDS011;7202;50.718;7.072;2023-06-24T06:40:14;6.47;;;5.63;;
14235;SDS011;7202;50.718;7.072;2023-06-24T06:42:44;11.02;;;7.68;;
14235;SDS011;7202;50.718;7.072;2023-06-24T06:45:13;8.35;;;7.43;;
14235;SDS011;7202;50.718;7.072;2023-06-24T06:47:45;9.45;;;6.88;;
14235;SDS011;7202;50.718;7.072;2023-06-24T06:50:13;9.88;;;7.15;;
14235;SDS011;7202;50.718;7.072;2023-06-24T06:52:42;8.52;;;6.75;;
14235;SDS011;7202;50.718;7.072;2023-06-24T06:55:11;8.50;;;6.60;;
14235;SDS011;7202;50.718;7.072;2023-06-24T06:57:39;9.10;;;6.30;;
14235;SDS011;7202;50.718;7.072;2023-06-24T07:00:10;9.13;;;7.88;;
14235;SDS011;7202;50.718;7.072;2023-06-24T07:02:39;9.60;;;7.85;;
14235;SDS011;7202;50.718;7.072;2023-06-24T07:05:08;10.57;;;7.05;;
14235;SDS011;7202;50.718;7.072;2023-06-24T07:07:38;7.50;;;6.03;;
14235;SDS011;7202;50.718;7.072;2023-06-24T07:10:07;12.70;;;8.48;;
14235;SDS011;7202;50.718;7.072;2023-06-24T07:12:36;10.23;;;6.93;;
14235;SDS011;7202;50.718;7.072;2023-06-24T07:15:05;9.13;;;7.75;;
14235;SDS011;7202;50.718;7.072;2023-06-24T07:17:36;9.52;;;7.20;;
14235;SDS011;7202;50.718;7.072;2023-06-24T07:20:05;9.40;;;7.18;;
14235;SDS011;7202;50.718;7.072;2023-06-24T07:22:34;9.48;;;6.78;;
14235;SDS011;7202;50.718;7.072;2023-06-24T07:25:03;8.95;;;7.30;;
14235;SDS011;7202;50.718;7.072;2023-06-24T07:27:32;10.27;;;7.57;;
14235;SDS011;7202;50.718;7.072;2023-06-24T07:30:01;12.60;;;7.25;;
14235;SDS011;7202;50.718;7.072;2023-06-24T07:32:29;12.40;;;8.27;;
14235;SDS011;7202;50.718;7.072;2023-06-24T07:34:59;11.30;;;8.00;;
14235;SDS011;7202;50.718;7.072;2023-06-24T07:37:29;11.85;;;7.80;;
14235;SDS011;7202;50.718;7.072;2023-06-24T07:39:57;10.50;;;7.20;;
14235;SDS011;7202;50.718;7.072;2023-06-24T07:42:26;10.32;;;6.90;;
14235;SDS011;7202;50.718;7.072;2023-06-24T07:44:57;8.75;;;6.68;;
14235;SDS011;7202;50.718;7.072;2023-06-24T07:47:26;10.20;;;7.78;;
14235;SDS011;7202;50.718;7.072;2023-06-24T07:49:54;7.68;;;6.90;;
14235;SDS011;7202;50.718;7.072;2023-06-24T07:52:25;7.00;;;6.30;;
14235;SDS011;7202;50.718;7.072;2023-06-24T07:54:53;11.88;;;7.25;;
14235;SDS011;7202;50.718;7.072;2023-06-24T07:57:22;8.13;;;6.97;;
14235;SDS011;7202;50.718;7.072;2023-06-24T07:59:50;8.23;;;6.38;;
14235;SDS011;7202;50.718;7.072;2023-06-24T08:02:21;10.10;;;6.93;;
14235;SDS011;7202;50.718;7.072;2023-06-24T08:04:50;13.38;;;7.15;;
14235;SDS011;7202;50.718;7.072;2023-06-24T08:07:19;9.85;;;8.27;;
14235;SDS011;7202;50.718;7.072;2023-06-24T08:09:50;13.93;;;6.70;;
14235;SDS011;7202;50.718;7.072;2023-06-24T08:12:18;11.35;;;6.63;;
14235;SDS011;7202;50.718;7.072;2023-06-24T08:14:47;8.27;;;7.00;;
14235;SDS011;7202;50.718;7.072;2023-06-24T08:17:15;10.98;;;6.50;;
14235;SDS011;7202;50.718;7.072;2023-06-24T08:19:44;9.13;;;7.45;;
14235;SDS011;7202;50.718;7.072;2023-06-24T08:22:12;9.27;;;6.47;;
14235;SDS011;7202;50.718;7.072;2023-06-24T08:24:41;8.70;;;7.47;;
14235;SDS011;7202;50.718;7.072;2023-06-24T08:27:11;6.97;;;5.85;;
14235;SDS011;7202;50.718;7.072;2023-06-24T08:29:42;10.85;;;7.60;;
14235;SDS011;7202;50.718;7.072;2023-06-24T08:32:11;8.73;;;7.00;;
14235;SDS011;7202;50.718;7.072;2023-06-24T08:34:39;7.53;;;6.35;;
14235;SDS011;7202;50.718;7.072;2023-06-24T08:37:08;11.88;;;7.25;;
14235;SDS011;7202;50.718;7.072;2023-06-24T08:39:37;7.60;;;6.40;;
14235;SDS011;7202;50.718;7.072;2023-06-24T08:42:06;7.80;;;6.35;;
14235;SDS011;7202;50.718;7.072;2023-06-24T08:44:36;9.80;;;6.70;;
14235;SDS011;7202;50.718;7.072;2023-06-24T08:47:05;7.43;;;5.53;;
14235;SDS011;7202;50.718;7.072;2023-06-24T08:49:34;8.52;;;6.20;;
14235;SDS011;7202;50.718;7.072;2023-06-24T08:52:11;7.60;;;6.32;;
14235;SDS011;7202;50.718;7.072;2023-06-24T08:54:45;10.68;;;7.20;;
14235;SDS011;7202;50.718;7.072;2023-06-24T08:57:16;10.00;;;6.75;;
14235;SDS011;7202;50.718;7.072;2023-06-24T08:59:47;9.02;;;6.60;;
14235;SDS011;7202;50.718;7.072;2023-06-24T09:02:15;7.97;;;5.80;;
14235;SDS011;7202;50.718;7.072;2023-06-24T09:04:44;7.22;;;5.70;;
14235;SDS011;7202;50.718;7.072;2023-06-24T09:07:13;7.47;;;5.32;;
14235;SDS011;7202;50.718;7.072;2023-06-24T09:09:51;8.80;;;6.60;;
14235;SDS011;7202;50.718;7.072;2023-06-24T09:12:20;6.40;;;5.45;;
14235;SDS011;7202;50.718;7.072;2023-06-24T09:14:50;7.50;;;5.70;;
14235;SDS011;7202;50.718;7.072;2023-06-24T09:17:19;7.03;;;5.18;;
14235;SDS011;7202;50.718;7.072;2023-06-24T09:19:49;8.25;;;4.82;;
14235;SDS011;7202;50.718;7.072;2023-06-24T09:22:18;6.80;;;5.25;;
14235;SDS011;7202;50.718;7.072;2023-06-24T09:24:47;9.10;;;5.47;;
14235;SDS011;7202;50.718;7.072;2023-06-24T09:27:17;7.50;;;6.35;;
14235;SDS011;7202;50.718;7.072;2023-06-24T09:29:50;6.05;;;5.45;;
14235;SDS011;7202;50.718;7.072;2023-06-24T09:32:18;6.32;;;5.60;;
14235;SDS011;7202;50.718;7.072;2023-06-24T09:34:47;9.80;;;6.28;;
14235;SDS011;7202;50.718;7.072;2023-06-24T09:37:20;5.88;;;5.18;;
14235;SDS011;7202;50.718;7.072;2023-06-24T09:39:50;7.22;;;5.55;;
14235;SDS011;7202;50.718;7.072;2023-06-24T09:42:20;7.68;;;5.07;;
14235;SDS011;7202;50.718;7.072;2023-06-24T09:44:53;6.18;;;4.40;;
14235;SDS011;7202;50.718;7.072;2023-06-24T09:47:23;6.80;;;5.50;;
14235;SDS011;7202;50.718;7.072;2023-06-24T09:49:53;6.28;;;5.53;;
14235;SDS011;7202;50.718;7.072;2023-06-24T09:52:22;7.82;;;6.75;;
14235;SDS011;7202;50.718;7.072;2023-06-24T09:54:51;5.80;;;5.20;;
14235;SDS011;7202;50.718;7.072;2023-06-24T09:57:23;6.20;;;4.80;;
14235;SDS011;7202;50.718;7.072;2023-06-24T09:59:57;7.05;;;5.30;;
14235;SDS011;7202;50.718;7.072;2023-06-24T10:02:31;7.32;;;5.32;;
14235;SDS011;7202;50.718;7.072;2023-06-24T10:05:01;8.98;;;5.75;;
14235;SDS011;7202;50.718;7.072;2023-06-24T10:07:33;8.70;;;5.68;;
14235;SDS011;7202;50.718;7.072;2023-06-24T10:10:03;8.07;;;5.53;;
14235;SDS011;7202;50.718;7.072;2023-06-24T10:12:33;7.85;;;6.10;;
14235;SDS011;7202;50.718;7.072;2023-06-24T10:15:04;7.50;;;5.47;;
14235;SDS011;7202;50.718;7.072;2023-06-24T10:17:34;11.10;;;6.18;;
14235;SDS011;7202;50.718;7.072;2023-06-24T10:20:06;7.15;;;5.93;;
14235;SDS011;7202;50.718;7.072;2023-06-24T10:22:35;8.80;;;6.07;;
14235;SDS011;7202;50.718;7.072;2023-06-24T10:25:05;7.55;;;5.57;;
14235;SDS011;7202;50.718;7.072;2023-06-24T10:27:38;6.20;;;5.18;;
14235;SDS011;7202;50.718;7.072;2023-06-24T10:30:16;5.70;;;5.20;;
14235;SDS011;7202;50.718;7.072;2023-06-24T10:32:46;8.55;;;5.00;;
14235;SDS011;7202;50.718;7.072;2023-06-24T10:35:23;6.93;;;5.35;;
14235;SDS011;7202;50.718;7.072;2023-06-24T10:37:54;7.45;;;4.50;;
14235;SDS011;7202;50.718;7.072;2023-06-24T10:40:36;5.05;;;4.45;;
14235;SDS011;7202;50.718;7.072;2023-06-24T10:45:56;5.53;;;4.53;;
14235;SDS011;7202;50.718;7.072;2023-06-24T10:48:26;7.72;;;4.68;;
14235;SDS011;7202;50.718;7.072;2023-06-24T10:50:55;7.13;;;4.53;;
14235;SDS011;7202;50.718;7.072;2023-06-24T10:53:23;5.97;;;4.80;;
14235;SDS011;7202;50.718;7.072;2023-06-24T10:55:52;9.02;;;5.20;;
14235;SDS011;7202;50.718;7.072;2023-06-24T10:58:25;5.15;;;4.43;;
14235;SDS011;7202;50.718;7.072;2023-06-24T11:01:05;5.38;;;4.65;;
14235;SDS011;7202;50.718;7.072;2023-06-24T11:03:36;6.20;;;4.18;;
14235;SDS011;7202;50.718;7.072;2023-06-24T11:06:10;5.00;;;4.40;;
14235;SDS011;7202;50.718;7.072;2023-06-24T11:08:42;8.77;;;4.70;;
14235;SDS011;7202;50.718;7.072;2023-06-24T11:11:18;8.43;;;5.30;;
14235;SDS011;7202;50.718;7.072;2023-06-24T11:13:48;5.68;;;4.32;;
14235;SDS011;7202;50.718;7.072;2023-06-24T11:16:21;5.93;;;4.43;;
14235;SDS011;7202;50.718;7.072;2023-06-24T11:18:49;5.75;;;4.15;;
14235;SDS011;7202;50.718;7.072;2023-06-24T11:21:18;6.45;;;4.40;;
14235;SDS011;7202;50.718;7.072;2023-06-24T11:23:47;4.45;;;3.97;;
14235;SDS011;7202;50.718;7.072;2023-06-24T11:26:15;8.13;;;4.55;;
14235;SDS011;7202;50.718;7.072;2023-06-24T11:28:44;5.20;;;4.70;;
14235;SDS011;7202;50.718;7.072;2023-06-24T11:31:12;6.43;;;4.57;;
14235;SDS011;7202;50.718;7.072;2023-06-24T11:33:43;6.15;;;4.55;;
14235;SDS011;7202;50.718;7.072;2023-06-24T11:36:16;6.53;;;4.47;;
14235;SDS011;7202;50.718;7.072;2023-06-24T11:38:45;4.97;;;4.47;;
14235;SDS011;7202;50.718;7.072;2023-06-24T11:41:14;7.10;;;4.53;;
14235;SDS011;7202;50.718;7.072;2023-06-24T11:43:44;5.20;;;4.70;;
14235;SDS011;7202;50.718;7.072;2023-06-24T11:46:20;7.43;;;4.45;;
14235;SDS011;7202;50.718;7.072;2023-06-24T11:48:50;5.95;;;5.35;;
14235;SDS011;7202;50.718;7.072;2023-06-24T11:51:19;5.97;;;5.22;;
14235;SDS011;7202;50.718;7.072;2023-06-24T11:53:51;5.72;;;5.13;;
14235;SDS011;7202;50.718;7.072;2023-06-24T11:56:20;6.43;;;4.63;;
14235;SDS011;7202;50.718;7.072;2023-06-24T11:59:03;5.00;;;4.50;;
14235;SDS011;7202;50.718;7.072;2023-06-24T12:01:33;6.00;;;4.43;;
14235;SDS011;7202;50.718;7.072;2023-06-24T12:04:10;4.93;;;4.40;;
14235;SDS011;7202;50.718;7.072;2023-06-24T12:06:40;5.70;;;4.28;;
14235;SDS011;7202;50.718;7.072;2023-06-24T12:09:09;4.53;;;4.00;;
14235;SDS011;7202;50.718;7.072;2023-06-24T12:11:38;4.88;;;4.45;;
14235;SDS011;7202;50.718;7.072;2023-06-24T12:14:07;4.68;;;4.22;;
14235;SDS011;7202;50.718;7.072;2023-06-24T12:16:35;5.22;;;4.57;;
14235;SDS011;7202;50.718;7.072;2023-06-24T12:19:04;4.65;;;4.25;;
14235;SDS011;7202;50.718;7.072;2023-06-24T12:21:34;4.47;;;4.05;;
14235;SDS011;7202;50.718;7.072;2023-06-24T12:24:03;6.13;;;4.32;;
14235;SDS011;7202;50.718;7.072;2023-06-24T12:26:32;4.82;;;3.92;;
14235;SDS011;7202;50.718;7.072;2023-06-24T12:29:03;6.72;;;4.70;;
14235;SDS011;7202;50.718;7.072;2023-06-24T12:31:32;5.07;;;4.20;;
14235;SDS011;7202;50.718;7.072;2023-06-24T12:34:00;6.57;;;4.32;;
14235;SDS011;7202;50.718;7.072;2023-06-24T12:36:29;4.28;;;3.88;;
14235;SDS011;7202;50.718;7.072;2023-06-24T12:38:59;4.40;;;3.88;;
14235;SDS011;7202;50.718;7.072;2023-06-24T12:41:28;5.00;;;4.07;;
14235;SDS011;7202;50.718;7.072;2023-06-24T12:43:56;4.78;;;4.28;;
14235;SDS011;7202;50.718;7.072;2023-06-24T12:46:25;6.88;;;4.72;;
14235;SDS011;7202;50.718;7.072;2023-06-24T12:48:54;5.03;;;4.30;;
14235;SDS011;7202;50.718;7.072;2023-06-24T12:51:23;5.15;;;4.10;;
14235;SDS011;7202;50.718;7.072;2023-06-24T12:53:52;6.47;;;4.60;;
14235;SDS011;7202;50.718;7.072;2023-06-24T12:56:21;4.70;;;4.20;;
14235;SDS011;7202;50.718;7.072;2023-06-24T12:58:50;4.80;;;4.03;;
14235;SDS011;7202;50.718;7.072;2023-06-24T13:01:19;6.30;;;4.13;;
14235;SDS011;7202;50.718;7.072;2023-06-24T13:03:47;4.53;;;4.10;;
14235;SDS011;7202;50.718;7.072;2023-06-24T13:06:16;8.90;;;4.45;;
14235;SDS011;7202;50.718;7.072;2023-06-24T13:08:44;6.15;;;4.65;;
14235;SDS011;7202;50.718;7.072;2023-06-24T13:11:13;6.45;;;4.30;;
14235;SDS011;7202;50.718;7.072;2023-06-24T13:13:43;5.97;;;4.88;;
14235;SDS011;7202;50.718;7.072;2023-06-24T13:16:14;7.82;;;4.25;;
14235;SDS011;7202;50.718;7.072;2023-06-24T13:18:42;6.85;;;4.53;;
14235;SDS011;7202;50.718;7.072;2023-06-24T13:21:11;5.20;;;4.10;;
14235;SDS011;7202;50.718;7.072;2023-06-24T13:23:42;5.88;;;4.28;;
14235;SDS011;7202;50.718;7.072;2023-06-24T13:26:13;4.55;;;4.10;;
14235;SDS011;7202;50.718;7.072;2023-06-24T13:28:43;6.22;;;4.50;;
14235;SDS011;7202;50.718;7.072;2023-06-24T13:31:12;4.30;;;3.90;;
14235;SDS011;7202;50.718;7.072;2023-06-24T13:33:42;6.38;;;3.53;;
14235;SDS011;7202;50.718;7.072;2023-06-24T13:36:12;4.57;;;4.18;;
14235;SDS011;7202;50.718;7.072;2023-06-24T13:38:56;6.40;;;3.70;;
14235;SDS011;7202;50.718;7.072;2023-06-24T13:41:25;7.68;;;4.32;;
14235;SDS011;7202;50.718;7.072;2023-06-24T13:43:57;8.38;;;4.30;;
14235;SDS011;7202;50.718;7.072;2023-06-24T13:46:27;4.60;;;4.03;;
14235;SDS011;7202;50.718;7.072;2023-06-24T13:48:56;4.35;;;3.95;;
14235;SDS011;7202;50.718;7.072;2023-06-24T13:51:25;4.60;;;4.10;;
14235;SDS011;7202;50.718;7.072;2023-06-24T13:53:54;7.50;;;4.80;;
14235;SDS011;7202;50.718;7.072;2023-06-24T13:56:24;4.65;;;4.10;;
14235;SDS011;7202;50.718;7.072;2023-06-24T13:58:53;6.30;;;4.20;;
14235;SDS011;7202;50.718;7.072;2023-06-24T14:01:23;6.55;;;4.13;;
14235;SDS011;7202;50.718;7.072;2023-06-24T14:03:52;5.18;;;4.40;;
14235;SDS011;7202;50.718;7.072;2023-06-24T14:06:21;4.68;;;3.95;;
14235;SDS011;7202;50.718;7.072;2023-06-24T14:08:51;6.22;;;5.72;;
14235;SDS011;7202;50.718;7.072;2023-06-24T14:11:21;4.30;;;3.90;;
14235;SDS011;7202;50.718;7.072;2023-06-24T14:13:49;5.72;;;3.50;;
14235;SDS011;7202;50.718;7.072;2023-06-24T14:16:21;4.47;;;4.07;;
14235;SDS011;7202;50.718;7.072;2023-06-24T14:18:51;5.57;;;4.47;;
14235;SDS011;7202;50.718;7.072;2023-06-24T14:21:20;5.22;;;4.25;;
14235;SDS011;7202;50.718;7.072;2023-06-24T14:23:48;5.53;;;4.10;;
14235;SDS011;7202;50.718;7.072;2023-06-24T14:26:20;6.63;;;4.78;;
14235;SDS011;7202;50.718;7.072;2023-06-24T14:28:49;6.70;;;4.38;;
14235;SDS011;7202;50.718;7.072;2023-06-24T14:31:18;4.85;;;4.35;;
14235;SDS011;7202;50.718;7.072;2023-06-24T14:33:46;4.40;;;4.00;;
14235;SDS011;7202;50.718;7.072;2023-06-24T14:36:16;5.78;;;4.50;;
14235;SDS011;7202;50.718;7.072;2023-06-24T14:38:45;5.28;;;4.50;;
14235;SDS011;7202;50.718;7.072;2023-06-24T14:41:14;7.32;;;6.63;;
14235;SDS011;7202;50.718;7.072;2023-06-24T14:43:42;10.50;;;5.88;;
14235;SDS011;7202;50.718;7.072;2023-06-24T14:46:11;4.22;;;3.85;;
14235;SDS011;7202;50.718;7.072;2023-06-24T14:48:40;7.68;;;4.30;;
14235;SDS011;7202;50.718;7.072;2023-06-24T14:51:08;7.68;;;4.60;;
14235;SDS011;7202;50.718;7.072;2023-06-24T14:53:38;6.75;;;4.13;;
14235;SDS011;7202;50.718;7.072;2023-06-24T14:56:07;5.43;;;4.40;;
14235;SDS011;7202;50.718;7.072;2023-06-24T14:58:36;4.70;;;4.22;;
14235;SDS011;7202;50.718;7.072;2023-06-24T15:01:04;5.88;;;4.25;;
14235;SDS011;7202;50.718;7.072;2023-06-24T15:03:33;6.20;;;4.00;;
14235;SDS011;7202;50.718;7.072;2023-06-24T15:06:02;4.20;;;3.58;;
14235;SDS011;7202;50.718;7.072;2023-06-24T15:08:30;5.55;;;4.00;;
14235;SDS011;7202;50.718;7.072;2023-06-24T15:11:00;4.30;;;3.85;;
14235;SDS011;7202;50.718;7.072;2023-06-24T15:13:29;4.65;;;4.20;;
14235;SDS011;7202;50.718;7.072;2023-06-24T15:15:58;4.72;;;4.22;;
14235;SDS011;7202;50.718;7.072;2023-06-24T15:18:26;5.75;;;4.22;;
14235;SDS011;7202;50.718;7.072;2023-06-24T15:20:56;4.20;;;3.80;;
14235;SDS011;7202;50.718;7.072;2023-06-24T15:23:25;4.88;;;4.13;;